Flight Track Log - Related Links

Times and Time Zones

All times are in EDT time to prevent confusion due to time zone crossing. See the N81AX flight status page for this flight to view local times or setup timezone preferences in your user account.

Time Position Orientation Groundspeed Altitude Reporting Facility
EDT Latitude Longitude Course Direction KTS MPH feet Rate Location/Type
Mon 11:20:09 AM 33.9333 -83.9833 151° Southeast 208 239 2,600  Level Atlanta TRACON
Mon 11:21:15 AM 33.8833 -83.9500 151° Southeast 262 302 6,400 3,732 Climbing Atlanta TRACON
Mon 11:21:31 AM 33.8736 -83.9261 116° Southeast 259 298 7,700 3,158 Climbing Atlanta Center
Mon 11:22:31 AM 33.8233 -83.8636 134° Southeast 283 326 10,400 2,800 Climbing Atlanta Center
Mon 11:23:31 AM 33.7378 -83.8539 175° South 284 327 13,300 2,750 Climbing Atlanta Center
Mon 11:24:31 AM 33.6544 -83.8992 204° Southwest 298 343 15,900 2,700 Climbing Atlanta Center
Mon 11:25:31 AM 33.5647 -83.9417 202° Southwest 331 381 18,700 3,433 Climbing Atlanta Center
Mon 11:27:31 AM 33.3831 -84.0264 201° Southwest 348 400 26,200 2,967 Climbing Atlanta Center
Mon 11:28:31 AM 33.2975 -84.0461 191° South 326 375 27,600 1,800 Climbing Atlanta Center
Mon 11:29:31 AM 33.2014 -84.0092 162° South 321 369 29,800 1,450 Climbing Atlanta Center
Mon 11:30:31 AM 33.1097 -83.9694 160° South 342 394 30,500 700 Climbing Atlanta Center
Mon 11:31:31 AM 33.0011 -83.9397 167° South 372 428 31,200 750 Climbing Atlanta Center
Mon 11:32:31 AM 32.8883 -83.9275 175° South 396 456 32,000 1,050 Climbing Atlanta Center
Mon 11:33:31 AM 32.7756 -83.9253 179° South 407 468 33,300 1,050 Climbing Atlanta Center
Mon 11:34:31 AM 32.6608 -83.9228 179° South 412 474 34,100 900 Climbing Atlanta Center
Mon 11:35:31 AM 32.5586 -83.9033 171° South 417 480 35,100 850 Climbing Atlanta Center
Mon 11:36:31 AM 32.4417 -83.8642 164° South 422 486 35,800 1,000 Climbing Atlanta Center
Mon 11:37:31 AM 32.3244 -83.8250 164° South 429 494 37,100 1,150 Climbing Atlanta Center
Mon 11:38:31 AM 32.2075 -83.7786 161° South 434 499 38,100 865 Climbing Atlanta Center
Mon 11:39:15 AM 32.1239 -83.7414 159° South 436 502 38,600 808 Climbing Jacksonville Center
Mon 11:40:15 AM 32.0075 -83.6889 159° South 449 517 39,500 800 Climbing Jacksonville Center
Mon 11:41:15 AM 31.8931 -83.6364 159° South 449 517 40,200 600 Climbing Jacksonville Center
Mon 11:42:15 AM 31.7806 -83.5817 158° South 444 511 40,700 400 Climbing Jacksonville Center
Mon 11:43:15 AM 31.6492 -83.5247 160° South 449 517 41,000 198 Climbing Jacksonville Center
Mon 11:44:16 AM 31.5325 -83.4750 160° South 449 517 41,100 100 Climbing Jacksonville Center
Mon 11:45:15 AM 31.4136 -83.4403 166° South 443 510 41,200 303 Climbing Jacksonville Center
Mon 11:46:15 AM 31.2886 -83.4200 172° South 438 504 41,700 347 Climbing Jacksonville Center
Mon 11:47:16 AM 31.1675 -83.4000 172° South 444 511 41,900 200 Climbing Jacksonville Center
Mon 11:48:15 AM 31.0486 -83.3581 163° South 449 517 42,100 252 Climbing Jacksonville Center
Mon 11:49:15 AM 30.9297 -83.2994 157° South 449 517 42,400 248 Climbing Jacksonville Center
Mon 11:50:16 AM 30.8361 -83.2556 158° South 455 524 42,600 200 Climbing Jacksonville Center
Mon 11:51:15 AM 30.7108 -83.1872 155° Southeast 455 524 42,800 101 Climbing Jacksonville Center
Mon 11:52:15 AM 30.5961 -83.1314 157° South 455 524 42,800 99 Level Jacksonville Center
Mon 11:53:16 AM 30.4794 -83.0758 158° South 455 524 43,000 99 Climbing Jacksonville Center
Mon 11:54:16 AM 30.3603 -83.0225 159° South 455 524 43,000  Level Jacksonville Center
Mon 11:55:15 AM 30.2414 -82.9719 160° South 455 524 43,000  Level Jacksonville Center
Mon 11:56:16 AM 30.1225 -82.9167 158° South 455 524 43,000  Level Jacksonville Center
Mon 11:57:15 AM 29.9889 -82.8589 159° South 455 524 43,000  Level Jacksonville Center
Mon 11:58:15 AM 29.8678 -82.8064 159° South 460 529 43,000  Level Jacksonville Center
Mon 11:59:15 AM 29.7486 -82.7492 157° South 465 535 43,000  Level Jacksonville Center
Mon 12:00:15 PM 29.6317 -82.6919 157° South 465 535 43,000  Level Jacksonville Center
Mon 12:01:16 PM 29.5106 -82.6347 158° South 465 535 43,000  Level Jacksonville Center
Mon 12:02:16 PM 29.3914 -82.5828 159° South 465 535 43,000  Level Jacksonville Center
Mon 12:03:16 PM 29.2722 -82.5283 158° South 465 535 43,000  Level Jacksonville Center
Mon 12:04:16 PM 29.1572 -82.4764 158° South 460 529 43,000 -50 Level Jacksonville Center
Mon 12:05:15 PM 29.0339 -82.4367 164° South 460 529 42,900  Descending Jacksonville Center
Mon 12:06:16 PM 28.9086 -82.4206 174° South 449 517 43,000 50 Climbing Jacksonville Center
Mon 12:07:15 PM 28.7856 -82.4069 174° South 449 517 43,000  Level Jacksonville Center
Mon 12:08:16 PM 28.6769 -82.3981 176° South 442 509 43,000  Level Jacksonville Center
Mon 12:09:16 PM 28.5517 -82.3867 175° South 442 509 43,000  Level Jacksonville Center
Mon 12:10:51 PM 28.3539 -82.3597 173° South 444 511 43,000  Level Miami Center
Mon 12:11:51 PM 28.2147 -82.3386 172° South 454 522 43,000 -50 Level Miami Center
Mon 12:12:51 PM 28.0906 -82.3161 171° South 459 528 42,900 -550 Descending Miami Center
Mon 12:13:51 PM 27.9706 -82.2892 169° South 458 527 41,900 -1,785 Descending Miami Center
Mon 12:14:52 PM 27.8511 -82.2506 164° South 452 520 39,300 -2,800 Descending Miami Center
Mon 12:15:51 PM 27.7314 -82.2144 165° South 452 520 36,300 -3,176 Descending Miami Center
Mon 12:16:51 PM 27.6136 -82.1786 165° South 452 520 33,000 -2,926 Descending Miami Center
Mon 12:17:52 PM 27.5108 -82.1433 163° South 447 514 30,400 -2,926 Descending Miami Center
Mon 12:18:52 PM 27.3789 -82.0953 162° South 441 507 27,100 -2,521 Descending Miami Center
Mon 12:19:51 PM 27.2553 -82.0522 163° South 460 529 25,400 -1,261 Descending Miami Center
Mon 12:20:51 PM 27.1336 -82.0072 162° South 466 536 24,600 -645 Descending Miami Center
Mon 12:21:52 PM 27.0264 -81.9697 163° South 454 522 24,100 -300 Descending Miami Center
Mon 12:22:51 PM 26.8964 -81.9269 164° South 454 522 24,000 -600 Descending Miami Center
Mon 12:23:52 PM 26.8078 -81.8392 139° Southeast 421 484 22,900 -1,800 Descending Miami Center
Mon 12:24:51 PM 26.7281 -81.7289 129° Southeast 428 493 20,400 -1,916 Descending Miami Center
Mon 12:25:51 PM 26.6694 -81.6033 118° Southeast 448 516 19,100 -700 Descending Miami Center
Mon 12:26:51 PM 26.7044 -81.4886 71° East 399 459 19,000 -350 Descending Miami Center
Mon 12:27:51 PM 26.7547 -81.3533 67° East 411 473 18,400 -1,450 Descending Miami Center
Mon 12:28:51 PM 26.7856 -81.2267 75° East 421 484 16,100 -2,250 Descending Miami Center
Mon 12:29:51 PM 26.8122 -81.1067 76° East 405 466 13,900 -2,050 Descending Miami Center
Mon 12:30:51 PM 26.8211 -81.0114 84° East 365 420 12,000 -1,800 Descending Miami Center
Mon 12:31:51 PM 26.8306 -80.9047 84° East 351 404 10,300 -1,050 Descending Miami Center
Mon 12:32:51 PM 26.8164 -80.8067 99° East 307 353 9,900 -198 Descending Miami Center
Mon 12:33:52 PM 26.7853 -80.7217 112° Southeast 284 327 9,900 -850 Level Miami Center
Mon 12:34:51 PM 26.7561 -80.6417 112° Southeast 278 320 8,200 -1,916 Descending Miami Center
Mon 12:35:51 PM 26.7097 -80.5797 130° Southeast 278 320 6,100 -1,950 Descending Miami Center
Mon 12:36:51 PM 26.6994 -80.4864 97° East 265 305 4,300 -1,835 Descending Miami Center
Mon 12:37:52 PM 26.6972 -80.4119 92° East 265 305 2,400 -1,091 Descending Miami Center
Mon 12:38:52 PM 26.6928 -80.3328 94° East 265 305 2,100 -202 Descending Miami Center
Mon 12:39:51 PM 26.6903 -80.2631 92° East 243 280 2,000 50 Descending Miami Center
Mon 12:40:51 PM 26.6858 -80.1886 94° East 223 257 2,200 200 Climbing Miami Center
Mon 12:42:00 PM 26.6832 -80.0956 50° Northeast  Level Estimated
Mon 12:49:00 PM 26.6832 -80.0956 50° Northeast  Level Estimated
Mon 12:50:00 PM 26.6832 -80.0956 50° Northeast  Level Estimated
Mon 12:51:00 PM 26.6832 -80.0956 50° Northeast  Level Estimated

Login

Don't have an account? Register now (free) for customized features, flight alerts, and more!